Time;durP1;ratioP1;P1;durP2;ratioP2;P2;SDS_P1;SDS_P2;PMS_P1;PMS_P2;Temp;Humidity;BMP_temperature;BMP_pressure;BME280_temperature;BME280_humidity;BME280_pressure;Samples;Min_cycle;Max_cycle;Signal;HPM_P1;HPM_P2
2021/03/09 00:02:12;;;;;;;4.57;4.17;;;;;;;5.14;35.50;102032.09;6133334;28;21102;-57
2021/03/09 00:05:32;;;;;;;3.63;3.23;;;;;;;5.39;34.97;102023.41;6121218;28;20601;-57
2021/03/09 00:08:53;;;;;;;5.50;3.47;;;;;;;5.19;34.92;102022.75;6138491;28;20243;-56
2021/03/09 00:12:14;;;;;;;4.93;3.80;;;;;;;4.86;35.39;102025.97;6139511;28;20235;-57
2021/03/09 00:15:34;;;;;;;4.53;3.07;;;;;;;4.71;35.80;102030.63;6140149;28;20236;-57
2021/03/09 00:18:55;;;;;;;6.13;3.60;;;;;;;4.71;35.94;102025.47;6133445;28;20607;-56
2021/03/09 00:22:15;;;;;;;5.07;3.57;;;;;;;5.06;35.20;102020.59;6129822;28;20246;-55
2021/03/09 00:25:36;;;;;;;4.23;2.77;;;;;;;4.61;36.10;102025.97;6124046;28;20234;-58
2021/03/09 00:28:57;;;;;;;6.30;3.40;;;;;;;4.87;35.32;102026.88;6132607;28;20231;-60
2021/03/09 00:32:18;;;;;;;3.33;3.03;;;;;;;4.87;35.96;102017.44;6134591;28;20239;-58
2021/03/09 00:35:38;;;;;;;3.97;2.70;;;;;;;5.12;35.50;102020.84;6131761;28;20536;-56
2021/03/09 00:38:59;;;;;;;5.60;2.90;;;;;;;5.29;35.02;102017.09;6131880;28;20318;-54
2021/03/09 00:42:20;;;;;;;3.90;3.60;;;;;;;5.33;35.06;102016.34;6133956;28;20592;-56
2021/03/09 00:45:42;;;;;;;4.20;3.27;;;;;;;4.95;35.18;102009.06;6131327;28;20258;-56
2021/03/09 00:49:03;;;;;;;4.03;2.80;;;;;;;5.05;35.24;102000.78;6131307;28;20516;-57
2021/03/09 00:52:23;;;;;;;3.93;2.70;;;;;;;4.99;35.42;102005.75;6131568;28;20243;-56
2021/03/09 00:55:44;;;;;;;4.33;3.63;;;;;;;5.12;34.50;102002.75;6129839;28;22074;-58
2021/03/09 00:59:04;;;;;;;5.07;3.37;;;;;;;4.92;35.20;101994.34;6133744;28;20755;-59
2021/03/09 01:02:25;;;;;;;2.83;2.57;;;;;;;4.92;35.14;101995.25;6132113;28;20227;-53
2021/03/09 01:05:46;;;;;;;3.50;3.20;;;;;;;5.24;35.04;101987.63;6124072;28;20231;-57
2021/03/09 01:09:07;;;;;;;4.50;2.80;;;;;;;4.92;35.55;101984.91;6130463;28;20266;-56
2021/03/09 01:12:27;;;;;;;3.13;2.80;;;;;;;4.68;35.88;101981.50;6132603;28;20608;-57
2021/03/09 01:15:48;;;;;;;2.53;2.33;;;;;;;4.89;35.65;101974.47;6129742;28;20536;-58
2021/03/09 01:19:09;;;;;;;4.40;4.00;;;;;;;4.93;35.74;101981.50;6130544;28;20334;-56
2021/03/09 01:22:30;;;;;;;4.93;3.47;;;;;;;4.42;36.56;101971.19;6126303;28;20325;-57
2021/03/09 01:25:51;;;;;;;4.40;3.17;;;;;;;4.75;36.05;101975.72;6133262;28;20251;-59
2021/03/09 01:29:11;;;;;;;2.90;2.50;;;;;;;4.02;36.51;101964.59;6130299;28;20235;-57
2021/03/09 01:32:32;;;;;;;3.53;2.67;;;;;;;4.57;36.47;101960.50;6132068;28;20255;-56
2021/03/09 01:35:53;;;;;;;4.93;3.37;;;;;;;4.55;36.39;101956.97;6129401;28;20317;-58
2021/03/09 01:39:14;;;;;;;3.03;2.73;;;;;;;4.74;35.74;101953.31;6129889;28;20231;-57
2021/03/09 01:42:34;;;;;;;5.63;2.90;;;;;;;4.85;35.67;101945.94;6130477;28;20313;-55
2021/03/09 01:45:55;;;;;;;3.83;3.13;;;;;;;4.97;35.09;101940.28;6130977;28;20242;-58
2021/03/09 01:49:16;;;;;;;6.37;3.53;;;;;;;4.70;35.45;101935.97;6132107;28;20242;-57
2021/03/09 01:52:39;;;;;;;4.23;2.50;;;;;;;4.57;35.92;101923.50;6125366;28;20228;-57
2021/03/09 01:55:59;;;;;;;5.37;3.17;;;;;;;4.39;36.62;101926.34;6131676;28;20235;-55
2021/03/09 01:59:22;;;;;;;5.13;3.87;;;;;;;4.58;36.62;101922.69;6130443;28;20262;-56
2021/03/09 02:02:44;;;;;;;4.40;2.83;;;;;;;4.95;35.57;101916.13;6130569;28;20242;-59
2021/03/09 02:06:05;;;;;;;4.33;3.47;;;;;;;4.42;36.37;101923.84;6128105;28;20236;-57
2021/03/09 02:09:27;;;;;;;3.63;2.80;;;;;;;4.70;35.96;101920.50;6117110;28;20247;-58
2021/03/09 02:13:02;;;;;;;6.23;2.53;;;;;;;4.62;35.44;101907.34;6132685;28;20569;-56
2021/03/09 02:16:26;;;;;;;2.80;2.20;;;;;;;5.11;34.66;101905.44;6120198;28;20725;-57
2021/03/09 02:20:26;;;;;;;4.90;3.13;;;;;;;4.81;35.77;101902.75;6133065;28;20231;-58
2021/03/09 02:24:10;;;;;;;4.33;3.63;;;;;;;4.55;36.31;101892.47;6146654;28;20239;-56
2021/03/09 02:27:40;;;;;;;3.43;2.60;;;;;;;4.31;36.34;101900.28;6134781;28;20620;-56
2021/03/09 02:31:01;;;;;;;3.73;2.50;;;;;;;4.28;36.72;101895.03;6134078;28;20240;-56
2021/03/09 02:34:27;;;;;;;2.23;2.03;;;;;;;3.96;36.51;101886.19;6128008;28;20335;-55
2021/03/09 02:37:51;;;;;;;2.20;2.00;;;;;;;4.05;36.57;101882.25;6145479;28;20246;-54
2021/03/09 02:41:14;;;;;;;2.70;2.50;;;;;;;3.90;36.64;101882.56;6135656;28;20240;-58
2021/03/09 02:44:37;;;;;;;2.50;2.30;;;;;;;3.84;37.46;101871.16;6132567;28;20230;-58
2021/03/09 02:48:01;;;;;;;2.90;2.23;;;;;;;3.54;37.73;101877.84;6137000;28;20231;-57
2021/03/09 02:51:26;;;;;;;2.70;2.50;;;;;;;3.91;37.49;101870.56;6135131;28;20230;-58
2021/03/09 02:54:48;;;;;;;2.83;2.53;;;;;;;3.18;38.68;101874.78;6135771;28;20235;-58
2021/03/09 02:58:12;;;;;;;4.03;2.53;;;;;;;3.06;39.06;101869.16;6135447;28;20227;-57
2021/03/09 03:01:33;;;;;;;3.43;2.43;;;;;;;3.72;38.54;101862.19;6135302;28;20235;-57
2021/03/09 03:04:55;;;;;;;6.50;3.50;;;;;;;3.64;38.79;101861.00;6133426;28;20231;-58
2021/03/09 03:08:16;;;;;;;4.43;2.60;;;;;;;3.32;38.91;101865.88;6134487;28;20601;-57
2021/03/09 03:11:40;;;;;;;3.03;2.83;;;;;;;3.10;39.64;101868.44;6130516;28;20312;-56
2021/03/09 03:15:02;;;;;;;3.13;2.67;;;;;;;3.00;40.15;101862.06;6134798;28;20234;-57
2021/03/09 03:18:25;;;;;;;4.17;2.60;;;;;;;3.10;39.59;101859.06;6132279;28;20261;-58
2021/03/09 03:21:47;;;;;;;6.10;3.10;;;;;;;2.79;40.02;101856.97;6127288;28;20235;-56
2021/03/09 03:25:09;;;;;;;4.17;2.63;;;;;;;2.88;40.15;101862.47;6133396;28;20235;-57
2021/03/09 03:28:30;;;;;;;3.73;2.60;;;;;;;3.42;39.78;101855.91;6106549;28;20618;-57
2021/03/09 03:31:51;;;;;;;3.47;2.27;;;;;;;3.40;39.66;101852.41;6135632;28;20626;-57
2021/03/09 03:35:13;;;;;;;4.07;2.50;;;;;;;2.45;41.55;101865.91;6130600;28;20523;-58
2021/03/09 03:38:36;;;;;;;3.37;3.07;;;;;;;3.13;40.75;101860.84;6131792;28;20238;-57
2021/03/09 03:41:57;;;;;;;5.40;2.90;;;;;;;3.68;39.82;101851.69;6132437;28;20421;-58
2021/03/09 03:45:20;;;;;;;3.53;2.93;;;;;;;3.24;40.55;101863.81;6130047;28;20236;-55
2021/03/09 03:48:42;;;;;;;4.00;2.70;;;;;;;3.39;40.19;101860.94;6134158;28;20311;-57
2021/03/09 03:52:09;;;;;;;5.10;2.90;;;;;;;3.47;40.14;101860.41;6133339;28;20235;-57
2021/03/09 03:55:47;;;;;;;3.03;2.43;;;;;;;3.22;40.95;101858.63;6123081;28;20637;-56
2021/03/09 03:59:14;;;;;;;4.77;3.90;;;;;;;2.89;41.58;101859.09;6133703;28;20240;-54
2021/03/09 04:02:36;;;;;;;7.60;5.67;;;;;;;3.36;41.70;101854.00;6135500;28;20235;-57
2021/03/09 04:05:59;;;;;;;3.37;3.07;;;;;;;3.08;41.73;101852.97;6131522;28;20254;-53
2021/03/09 04:09:21;;;;;;;4.40;2.53;;;;;;;3.66;41.06;101846.47;6130226;28;20243;-51
2021/03/09 04:12:43;;;;;;;4.27;2.83;;;;;;;3.96;39.64;101847.53;6128099;28;20542;-57
2021/03/09 04:16:05;;;;;;;3.90;3.00;;;;;;;3.74;40.70;101847.66;6133755;28;20244;-55
2021/03/09 04:19:26;;;;;;;3.53;3.23;;;;;;;4.14;39.05;101846.44;6132262;28;20315;-57
2021/03/09 04:22:48;;;;;;;4.73;2.77;;;;;;;4.29;39.34;101842.63;6131515;28;20235;-59
2021/03/09 04:26:10;;;;;;;4.30;2.70;;;;;;;3.97;39.32;101846.69;6129605;28;20235;-59
2021/03/09 04:29:31;;;;;;;2.77;2.57;;;;;;;3.84;40.00;101842.81;6130269;28;20223;-56
2021/03/09 04:32:52;;;;;;;2.93;2.67;;;;;;;4.34;38.81;101843.63;6131038;28;20322;-58
2021/03/09 04:36:14;;;;;;;5.13;2.97;;;;;;;3.84;40.31;101846.28;6132735;28;20219;-57
2021/03/09 04:39:35;;;;;;;3.40;2.90;;;;;;;4.24;39.28;101839.88;6133704;28;20223;-58
2021/03/09 04:42:55;;;;;;;6.67;3.73;;;;;;;4.13;38.63;101841.25;6139112;28;20227;-58
2021/03/09 04:46:17;;;;;;;4.63;3.90;;;;;;;4.35;39.06;101837.66;6125809;28;20239;-59
2021/03/09 04:49:39;;;;;;;3.20;2.70;;;;;;;4.44;38.31;101839.66;6139028;28;20239;-56
2021/03/09 04:53:00;;;;;;;4.90;2.40;;;;;;;4.31;39.60;101834.13;6128213;28;20250;-57
2021/03/09 04:56:21;;;;;;;3.37;2.87;;;;;;;4.38;38.92;101842.03;6131192;28;20231;-56
2021/03/09 04:59:41;;;;;;;11.00;3.80;;;;;;;4.11;39.83;101843.78;6129739;28;20227;-57
2021/03/09 05:03:03;;;;;;;5.90;2.80;;;;;;;4.21;40.36;101846.66;6135753;28;20239;-56
2021/03/09 05:06:23;;;;;;;4.47;3.23;;;;;;;4.32;40.32;101841.03;6131930;28;20613;-57
2021/03/09 05:09:44;;;;;;;4.50;2.43;;;;;;;4.30;40.89;101837.53;6129107;28;20275;-56
2021/03/09 05:13:05;;;;;;;4.13;3.63;;;;;;;4.22;41.43;101838.09;6131528;28;20239;-58
2021/03/09 05:16:26;;;;;;;3.17;2.87;;;;;;;4.19;41.88;101837.97;6132975;28;20609;-57
2021/03/09 05:19:47;;;;;;;3.23;2.53;;;;;;;4.19;42.05;101844.03;6120170;28;20238;-55
2021/03/09 05:23:08;;;;;;;4.07;3.10;;;;;;;3.93;43.57;101846.56;6127842;28;20485;-59
2021/03/09 05:26:29;;;;;;;4.17;3.63;;;;;;;3.66;45.51;101843.91;6131453;28;20251;-58
2021/03/09 05:29:50;;;;;;;5.20;3.27;;;;;;;3.96;45.64;101840.66;6129228;28;20235;-57
2021/03/09 05:33:10;;;;;;;4.57;3.00;;;;;;;3.50;48.08;101842.50;6135030;28;20239;-58
2021/03/09 05:36:33;;;;;;;4.97;3.37;;;;;;;3.17;49.73;101849.84;6127988;28;20265;-58
2021/03/09 05:39:53;;;;;;;5.70;3.50;;;;;;;2.69;51.47;101849.69;6128245;28;20231;-57
2021/03/09 05:43:15;;;;;;;3.53;3.10;;;;;;;3.21;49.90;101840.56;6126769;28;20231;-59
2021/03/09 05:46:36;;;;;;;5.93;3.63;;;;;;;3.41;50.91;101844.72;6124877;28;20502;-56
2021/03/09 05:49:58;;;;;;;4.83;3.67;;;;;;;3.03;51.49;101846.75;6130343;28;20310;-53
2021/03/09 05:53:19;;;;;;;3.63;3.10;;;;;;;2.53;54.16;101843.94;6126503;28;20239;-53
2021/03/09 05:56:40;;;;;;;3.57;2.90;;;;;;;2.67;53.25;101841.06;6128372;28;20226;-57
2021/03/09 06:00:01;;;;;;;5.60;3.60;;;;;;;2.94;53.18;101847.25;6127841;28;20235;-57
2021/03/09 06:03:21;;;;;;;7.20;3.20;;;;;;;2.78;53.18;101852.66;6132806;28;20242;-56
2021/03/09 06:06:42;;;;;;;4.97;3.30;;;;;;;2.60;54.32;101847.66;6131342;28;20327;-56
2021/03/09 06:10:06;;;;;;;4.13;3.53;;;;;;;2.64;55.34;101848.66;6127015;28;20238;-55
2021/03/09 06:13:33;;;;;;;4.47;3.57;;;;;;;3.21;53.28;101851.72;6131062;28;20657;-58
2021/03/09 06:16:54;;;;;;;6.50;3.33;;;;;;;3.15;53.56;101846.34;6126712;28;20223;-56
2021/03/09 06:20:23;;;;;;;6.23;3.97;;;;;;;2.77;55.40;101856.03;6127330;28;20598;-56
2021/03/09 06:23:45;;;;;;;5.43;3.43;;;;;;;2.80;56.02;101858.72;6130047;28;20759;-57
2021/03/09 06:27:23;;;;;;;3.73;3.37;;;;;;;3.02;55.67;101854.41;6129815;28;20239;-54
2021/03/09 06:30:44;;;;;;;3.93;3.27;;;;;;;2.93;56.25;101844.66;6131253;28;20527;-56
2021/03/09 06:34:24;;;;;;;5.17;2.90;;;;;;;2.88;55.85;101844.47;6127285;28;20260;-59
2021/03/09 06:37:44;;;;;;;5.20;3.67;;;;;;;2.64;56.18;101830.66;6128778;28;20527;-56
2021/03/09 06:41:14;;;;;;;6.33;4.07;;;;;;;2.81;57.20;101836.44;6130254;28;20597;-57
2021/03/09 06:44:36;;;;;;;3.70;2.93;;;;;;;3.25;56.41;101839.84;6128554;28;20239;-59
2021/03/09 06:47:56;;;;;;;5.13;3.30;;;;;;;2.91;55.46;101843.72;6120279;28;20227;-58
2021/03/09 06:51:28;;;;;;;4.00;3.40;;;;;;;2.80;55.18;101843.28;6129404;28;20319;-60
2021/03/09 06:54:50;;;;;;;5.80;3.40;;;;;;;1.99;58.44;101848.56;6129752;28;20597;-58
2021/03/09 06:58:13;;;;;;;3.53;2.90;;;;;;;2.61;56.60;101845.97;6126076;28;20227;-57
2021/03/09 07:01:35;;;;;;;4.87;3.47;;;;;;;3.08;55.53;101839.19;6124420;28;20238;-59
2021/03/09 07:05:02;;;;;;;7.67;3.80;;;;;;;2.89;57.03;101838.50;6127847;28;20259;-56
2021/03/09 07:08:23;;;;;;;5.63;4.27;;;;;;;2.96;59.00;101844.75;6130040;28;20239;-52
2021/03/09 07:11:45;;;;;;;6.37;4.37;;;;;;;2.75;58.25;101839.66;6129461;28;20248;-57
2021/03/09 07:15:08;;;;;;;4.23;3.83;;;;;;;3.22;56.20;101840.63;6136128;28;20496;-56
2021/03/09 07:18:32;;;;;;;5.60;3.67;;;;;;;3.22;57.03;101844.84;6131717;28;20612;-59
2021/03/09 07:21:53;;;;;;;5.50;4.23;;;;;;;3.44;56.04;101833.69;6135083;28;20236;-57
2021/03/09 07:25:15;;;;;;;7.13;4.03;;;;;;;3.56;56.03;101849.56;6136016;28;20231;-58
2021/03/09 07:28:38;;;;;;;6.87;4.13;;;;;;;3.74;54.61;101842.50;6127998;28;20235;-58
2021/03/09 07:32:02;;;;;;;5.00;4.50;;;;;;;3.19;56.84;101843.06;6132831;28;20247;-58
2021/03/09 07:35:24;;;;;;;4.00;3.70;;;;;;;2.45;58.93;101844.47;6138506;28;20255;-57
2021/03/09 07:38:46;;;;;;;4.90;3.80;;;;;;;2.56;59.13;101841.50;6133533;28;20238;-58
2021/03/09 07:42:09;;;;;;;5.83;4.40;;;;;;;2.82;58.71;101846.81;6127972;28;20235;-56
2021/03/09 07:45:31;;;;;;;8.17;4.03;;;;;;;3.18;57.18;101841.31;6128030;28;20235;-60
2021/03/09 07:48:53;;;;;;;6.93;5.17;;;;;;;3.41;56.21;101849.00;6129991;28;20223;-56
2021/03/09 07:52:17;;;;;;;5.30;4.07;;;;;;;3.51;56.74;101838.25;6128147;28;20235;-58
2021/03/09 07:55:39;;;;;;;5.00;3.77;;;;;;;2.99;57.80;101841.44;6130398;28;20227;-57
2021/03/09 07:59:05;;;;;;;5.23;4.50;;;;;;;3.31;57.55;101842.63;6131371;28;20953;-58
2021/03/09 08:02:54;;;;;;;5.57;3.87;;;;;;;3.27;57.51;101844.22;6132964;28;20231;-58
2021/03/09 08:06:15;;;;;;;5.20;4.70;;;;;;;2.75;60.00;101844.78;6128761;28;20255;-55
2021/03/09 08:09:38;;;;;;;4.77;4.27;;;;;;;3.31;57.58;101832.34;6127532;28;20633;-55
2021/03/09 08:13:22;;;;;;;7.07;5.30;;;;;;;3.48;57.49;101832.97;6132697;28;20231;-57
2021/03/09 08:16:43;;;;;;;6.37;4.93;;;;;;;3.35;58.53;101837.69;6130998;28;20243;-54
2021/03/09 08:20:04;;;;;;;10.83;6.17;;;;;;;3.90;57.00;101823.28;6132869;28;20235;-55
2021/03/09 08:23:53;;;;;;;8.57;5.50;;;;;;;4.11;55.66;101824.81;6133460;28;20231;-52
2021/03/09 08:27:38;;;;;;;7.13;5.03;;;;;;;3.93;56.94;101825.09;6130617;28;20262;-54
2021/03/09 08:31:22;;;;;;;7.43;5.70;;;;;;;3.89;58.07;101829.25;6129945;28;20247;-53
2021/03/09 08:34:43;;;;;;;9.17;6.87;;;;;;;4.05;57.36;101820.38;6130481;28;20246;-56
2021/03/09 08:38:27;;;;;;;7.97;5.17;;;;;;;4.23;56.83;101812.38;6126738;28;20268;-56
2021/03/09 08:42:03;;;;;;;8.97;6.47;;;;;;;3.82;57.65;101811.84;6122656;28;20227;-56
2021/03/09 08:45:35;;;;;;;6.73;5.93;;;;;;;3.96;57.71;101817.47;6127640;28;20227;-57
2021/03/09 08:48:55;;;;;;;9.67;5.73;;;;;;;4.07;56.75;101808.41;6121594;28;20231;-52
2021/03/09 08:52:43;;;;;;;7.97;6.47;;;;;;;4.19;57.18;101813.09;6132428;28;20228;-59
2021/03/09 08:56:05;;;;;;;6.87;6.17;;;;;;;4.05;57.75;101820.38;6113308;28;20231;-60
2021/03/09 08:59:26;;;;;;;7.93;6.73;;;;;;;4.39;56.51;101821.47;6133161;28;20322;-57
2021/03/09 09:02:47;;;;;;;7.93;6.47;;;;;;;4.51;57.00;101816.69;6127120;28;20714;-55
2021/03/09 09:06:08;;;;;;;7.70;6.97;;;;;;;4.50;61.26;101814.97;6130733;28;20227;-53
2021/03/09 09:09:31;;;;;;;10.47;7.13;;;;;;;4.26;60.59;101815.03;6116733;28;20239;-54
2021/03/09 09:12:53;;;;;;;9.70;7.13;;;;;;;4.77;56.92;101813.16;6127572;28;20236;-58
2021/03/09 09:16:18;;;;;;;8.33;6.37;;;;;;;4.57;56.74;101815.13;6129821;28;20235;-58
2021/03/09 09:19:39;;;;;;;7.70;6.43;;;;;;;4.32;57.27;101815.25;6130562;28;20847;-58
2021/03/09 09:23:08;;;;;;;8.93;6.50;;;;;;;4.48;56.95;101811.44;6130718;28;20255;-59
2021/03/09 09:26:28;;;;;;;8.07;6.33;;;;;;;4.67;55.69;101822.34;6129702;28;20754;-53
2021/03/09 09:29:53;;;;;;;10.17;6.90;;;;;;;4.67;55.95;101830.97;6127432;28;20313;-57
2021/03/09 09:33:15;;;;;;;9.00;6.97;;;;;;;4.53;55.87;101827.94;6131074;28;20495;-58
2021/03/09 09:36:36;;;;;;;11.67;6.77;;;;;;;4.67;55.99;101827.50;6128116;28;20239;-59
2021/03/09 09:40:03;;;;;;;8.63;7.37;;;;;;;4.74;55.54;101829.44;6131570;28;20227;-55
2021/03/09 09:43:25;;;;;;;7.73;5.77;;;;;;;4.82;56.11;101832.25;6127865;28;20822;-58
2021/03/09 09:46:46;;;;;;;8.40;6.93;;;;;;;4.82;55.75;101825.38;6130094;28;20231;-58
2021/03/09 09:50:07;;;;;;;8.57;6.47;;;;;;;4.97;55.71;101819.81;6131578;28;20242;-57
2021/03/09 09:53:31;;;;;;;9.10;6.70;;;;;;;5.17;54.89;101820.41;6126782;28;20240;-59
2021/03/09 09:56:51;;;;;;;10.40;7.37;;;;;;;5.15;54.92;101821.19;6127745;28;20231;-56
2021/03/09 10:00:13;;;;;;;8.70;7.80;;;;;;;5.32;55.19;101820.84;6126362;28;20230;-56
2021/03/09 10:03:49;;;;;;;12.33;8.00;;;;;;;5.03;56.11;101811.38;6127044;28;20259;-57
2021/03/09 10:07:17;;;;;;;9.83;8.07;;;;;;;5.26;55.12;101819.81;6124627;28;20309;-61
2021/03/09 10:10:40;;;;;;;7.90;6.83;;;;;;;5.17;55.46;101814.38;6124656;28;20234;-56
2021/03/09 10:14:04;;;;;;;10.93;8.03;;;;;;;5.51;54.29;101811.91;6127202;28;20235;-57
2021/03/09 10:17:25;;;;;;;9.97;7.77;;;;;;;5.35;54.67;101809.75;6125967;28;20470;-52
2021/03/09 10:20:45;;;;;;;10.13;7.90;;;;;;;5.29;54.34;101813.03;6131224;28;20531;-52
2021/03/09 10:24:07;;;;;;;8.93;7.80;;;;;;;4.89;55.99;101817.00;6128743;28;20647;-57
2021/03/09 10:27:28;;;;;;;9.53;8.13;;;;;;;5.06;55.63;101817.53;6127617;28;20231;-58
2021/03/09 10:30:49;;;;;;;8.97;7.93;;;;;;;4.86;55.40;101819.50;6130941;28;20260;-56
2021/03/09 10:34:10;;;;;;;8.30;7.50;;;;;;;5.01;55.46;101819.09;6126931;28;20243;-55
2021/03/09 10:37:34;;;;;;;8.53;7.20;;;;;;;5.08;55.79;101815.00;6101966;28;20230;-58
2021/03/09 10:40:55;;;;;;;8.50;7.60;;;;;;;5.41;55.20;101803.84;6129306;28;20306;-55
2021/03/09 10:44:30;;;;;;;12.57;9.50;;;;;;;5.48;54.38;101806.63;6132003;28;20228;-55
2021/03/09 10:47:52;;;;;;;12.07;9.03;;;;;;;5.39;54.70;101805.50;6131153;28;20231;-56
2021/03/09 10:51:17;;;;;;;8.40;7.50;;;;;;;5.36;54.01;101810.63;6135569;28;20776;-55
2021/03/09 10:54:38;;;;;;;8.53;7.63;;;;;;;5.21;54.46;101803.28;6133230;28;20617;-56
2021/03/09 10:57:58;;;;;;;9.43;8.40;;;;;;;5.24;54.63;101809.44;6129769;28;21478;-55
2021/03/09 11:01:20;;;;;;;8.47;7.67;;;;;;;5.18;54.30;101808.38;6133635;28;20247;-55
2021/03/09 11:04:40;;;;;;;8.57;7.23;;;;;;;5.37;54.44;101797.75;6138006;28;20322;-55
2021/03/09 11:08:01;;;;;;;9.63;7.80;;;;;;;5.29;54.26;101799.22;6123449;28;20616;-54
2021/03/09 11:11:21;;;;;;;11.53;8.40;;;;;;;4.52;56.93;101802.97;6132817;28;20239;-55
2021/03/09 11:14:41;;;;;;;9.17;7.03;;;;;;;4.71;55.60;101807.00;6135031;28;20227;-56
2021/03/09 11:18:03;;;;;;;10.13;7.53;;;;;;;4.81;55.97;101805.59;6126012;28;20232;-57
2021/03/09 11:21:23;;;;;;;8.83;7.93;;;;;;;5.32;54.51;101799.31;6132781;28;20249;-54
2021/03/09 11:24:44;;;;;;;11.63;8.23;;;;;;;5.13;54.58;101809.09;6133563;28;20251;-57
2021/03/09 11:28:05;;;;;;;8.73;7.83;;;;;;;5.32;54.33;101797.59;6133509;28;20243;-57
2021/03/09 11:31:26;;;;;;;8.03;7.23;;;;;;;5.16;54.71;101797.09;6131407;28;20322;-57
2021/03/09 11:34:47;;;;;;;9.97;8.60;;;;;;;5.37;54.40;101794.25;6131768;28;20669;-55
2021/03/09 11:38:09;;;;;;;10.57;8.40;;;;;;;5.26;54.55;101799.16;6131092;28;20231;-55
2021/03/09 11:41:30;;;;;;;11.03;7.80;;;;;;;4.97;55.47;101796.59;6133261;28;20223;-57
2021/03/09 11:44:50;;;;;;;9.47;7.40;;;;;;;5.30;54.27;101788.06;6132770;28;20620;-52
2021/03/09 11:48:10;;;;;;;9.10;8.20;;;;;;;5.60;54.15;101790.59;6132609;28;20323;-57
2021/03/09 11:51:31;;;;;;;8.70;7.90;;;;;;;5.51;53.69;101788.66;6132032;28;20621;-60
2021/03/09 11:54:52;;;;;;;9.27;8.27;;;;;;;5.19;54.98;101781.72;6129174;28;20552;-59
2021/03/09 11:58:13;;;;;;;10.87;7.43;;;;;;;5.34;54.38;101787.31;6130936;28;20565;-57
2021/03/09 12:01:35;;;;;;;10.43;8.53;;;;;;;5.61;53.47;101782.03;6123584;28;20235;-58
2021/03/09 12:04:55;;;;;;;8.93;8.00;;;;;;;5.61;53.94;101782.03;6123717;28;20228;-57
2021/03/09 12:08:16;;;;;;;10.60;8.33;;;;;;;5.85;53.10;101786.09;6118577;28;20250;-56
2021/03/09 12:11:36;;;;;;;8.53;7.07;;;;;;;5.79;53.01;101780.75;6129579;28;20235;-59
2021/03/09 12:14:57;;;;;;;10.20;7.80;;;;;;;5.95;52.40;101774.25;6129910;28;20235;-55
2021/03/09 12:18:18;;;;;;;10.97;7.80;;;;;;;5.62;54.20;101776.03;6121569;28;20250;-62
2021/03/09 12:21:38;;;;;;;9.30;7.90;;;;;;;5.78;53.88;101768.66;6132665;28;20227;-63
2021/03/09 12:25:00;;;;;;;9.90;8.90;;;;;;;6.17;51.97;101765.38;6128225;28;20516;-62
2021/03/09 12:28:20;;;;;;;9.83;7.90;;;;;;;5.93;53.16;101766.47;6129875;28;20258;-63
2021/03/09 12:31:41;;;;;;;8.97;7.10;;;;;;;6.08;52.72;101771.19;6133460;28;20267;-62
2021/03/09 12:35:02;;;;;;;8.67;7.37;;;;;;;5.56;54.19;101767.22;6138124;28;20239;-56
2021/03/09 12:38:22;;;;;;;10.17;8.53;;;;;;;5.79;54.02;101770.41;6137857;28;20231;-55
2021/03/09 12:41:44;;;;;;;9.10;8.07;;;;;;;5.38;53.55;101765.91;6140722;28;20851;-52
2021/03/09 12:45:06;;;;;;;9.13;7.63;;;;;;;5.43;53.10;101761.75;6136144;28;20235;-56
2021/03/09 12:48:27;;;;;;;8.67;7.37;;;;;;;5.38;52.56;101767.63;6138147;28;20231;-54
2021/03/09 12:51:48;;;;;;;10.43;8.57;;;;;;;5.71;52.57;101758.16;6140463;28;20243;-59
2021/03/09 12:55:09;;;;;;;8.93;7.63;;;;;;;4.98;52.33;101759.59;6138284;28;20235;-54
2021/03/09 12:58:30;;;;;;;9.97;7.80;;;;;;;4.93;52.26;101764.63;6129364;28;20235;-58
2021/03/09 13:01:51;;;;;;;8.40;7.50;;;;;;;5.23;52.49;101743.09;6140659;28;20239;-58
2021/03/09 13:05:12;;;;;;;12.27;7.87;;;;;;;5.63;51.75;101754.50;6133028;28;20250;-56
2021/03/09 13:08:33;;;;;;;8.70;6.43;;;;;;;5.26;51.72;101748.34;6139894;28;20235;-55
2021/03/09 13:11:53;;;;;;;9.10;7.27;;;;;;;5.65;51.22;101747.66;6144230;28;20224;-57
2021/03/09 13:15:15;;;;;;;10.97;8.03;;;;;;;5.28;51.48;101736.34;6133172;28;20262;-57
2021/03/09 13:18:36;;;;;;;8.43;6.60;;;;;;;4.77;53.38;101739.22;6137586;28;20258;-57
2021/03/09 13:21:56;;;;;;;13.53;8.87;;;;;;;4.63;54.20;101743.09;6137833;28;20227;-60
2021/03/09 13:25:17;;;;;;;9.23;7.67;;;;;;;5.01;52.96;101735.59;6141283;28;20318;-57
2021/03/09 13:28:38;;;;;;;8.50;7.60;;;;;;;5.14;52.93;101742.88;6140139;28;20224;-57
2021/03/09 13:31:59;;;;;;;11.67;8.10;;;;;;;5.12;52.92;101741.94;6138063;28;20246;-59
2021/03/09 13:35:20;;;;;;;8.80;8.00;;;;;;;4.95;52.81;101743.19;6125986;28;20240;-57
2021/03/09 13:38:40;;;;;;;10.20;7.30;;;;;;;5.03;51.86;101739.09;6137493;28;20563;-54
2021/03/09 13:42:01;;;;;;;8.53;6.77;;;;;;;5.36;51.48;101738.28;6137055;28;20231;-56
2021/03/09 13:45:22;;;;;;;9.20;7.67;;;;;;;5.30;51.71;101734.69;6134349;28;20239;-56
2021/03/09 13:48:43;;;;;;;8.57;7.27;;;;;;;5.36;51.86;101739.16;6138642;28;20555;-58
2021/03/09 13:52:04;;;;;;;11.90;7.33;;;;;;;5.30;52.11;101734.69;6143611;28;20325;-56
2021/03/09 13:55:25;;;;;;;10.63;7.80;;;;;;;5.34;51.51;101735.66;6135361;28;20239;-55
2021/03/09 13:58:45;;;;;;;9.43;8.40;;;;;;;5.33;51.81;101733.88;6128407;28;20231;-52
2021/03/09 14:02:06;;;;;;;7.83;7.03;;;;;;;4.92;52.18;101731.03;6130027;28;20231;-59
2021/03/09 14:05:27;;;;;;;9.47;8.37;;;;;;;4.71;53.89;101739.03;6124160;28;20234;-57
2021/03/09 14:08:48;;;;;;;11.70;8.30;;;;;;;5.43;52.09;101735.91;6135441;28;20251;-56
2021/03/09 14:12:09;;;;;;;11.37;8.57;;;;;;;5.50;51.35;101729.19;6137047;28;20239;-56
2021/03/09 14:15:30;;;;;;;10.23;8.57;;;;;;;5.38;51.81;101728.88;6132226;28;20478;-53
2021/03/09 14:18:50;;;;;;;9.57;7.70;;;;;;;5.38;52.58;101721.13;6146808;28;20239;-55
2021/03/09 14:22:11;;;;;;;8.60;7.70;;;;;;;5.33;52.15;101719.28;6144284;28;20230;-57
2021/03/09 14:25:32;;;;;;;10.03;8.00;;;;;;;5.35;51.50;101721.03;6143008;28;20219;-58
2021/03/09 14:28:52;;;;;;;9.77;7.90;;;;;;;5.43;51.13;101716.94;6145036;28;20235;-57
2021/03/09 14:32:13;;;;;;;9.23;7.87;;;;;;;5.23;52.18;101722.44;6140644;28;20668;-57
2021/03/09 14:35:34;;;;;;;13.67;8.27;;;;;;;4.91;51.82;101726.72;6141740;28;20227;-56
2021/03/09 14:38:55;;;;;;;11.20;8.90;;;;;;;4.71;52.76;101731.28;6145732;28;20254;-55
2021/03/09 14:42:16;;;;;;;11.87;9.27;;;;;;;4.83;52.85;101720.47;6142164;28;20235;-58
2021/03/09 14:45:36;;;;;;;10.93;8.50;;;;;;;5.12;52.18;101723.88;6138643;28;20318;-58
2021/03/09 14:48:57;;;;;;;10.53;8.57;;;;;;;5.18;52.00;101724.03;6144610;28;20235;-57
2021/03/09 14:52:18;;;;;;;11.50;8.77;;;;;;;5.06;52.19;101718.50;6144297;28;20258;-56
2021/03/09 14:55:39;;;;;;;13.00;9.87;;;;;;;5.41;52.21;101718.59;6140875;28;20231;-55
2021/03/09 14:58:59;;;;;;;14.50;10.40;;;;;;;5.91;50.55;101714.75;6142924;28;20625;-57
2021/03/09 15:02:20;;;;;;;10.77;8.93;;;;;;;5.73;50.06;101709.97;6140555;28;20242;-57
2021/03/09 15:05:40;;;;;;;10.13;8.20;;;;;;;5.09;51.78;101719.47;6140124;28;20231;-57
2021/03/09 15:09:01;;;;;;;14.40;8.37;;;;;;;5.04;52.16;101720.19;6143190;28;20243;-55
2021/03/09 15:12:23;;;;;;;12.23;8.70;;;;;;;5.16;51.89;101720.53;6143329;28;20239;-57
2021/03/09 15:15:44;;;;;;;11.60;8.97;;;;;;;5.41;51.03;101716.00;6140188;28;20234;-55
2021/03/09 15:19:04;;;;;;;10.40;7.90;;;;;;;5.30;51.31;101714.03;6143273;28;20255;-56
2021/03/09 15:22:25;;;;;;;12.97;10.10;;;;;;;5.46;51.52;101722.19;6143296;28;20640;-61
2021/03/09 15:25:46;;;;;;;11.20;8.60;;;;;;;5.73;50.56;101725.47;6143160;28;20227;-58
2021/03/09 15:29:07;;;;;;;10.27;7.93;;;;;;;5.83;53.32;101721.41;6134173;28;20223;-74
2021/03/09 15:32:28;;;;;;;13.37;9.93;;;;;;;5.96;49.81;101721.75;6141606;28;20247;-57
2021/03/09 15:35:48;;;;;;;9.67;8.67;;;;;;;6.42;49.07;101722.84;6131961;28;20657;-55
2021/03/09 15:39:10;;;;;;;10.40;8.47;;;;;;;5.94;49.24;101716.50;6139065;29;20227;-58
2021/03/09 15:42:32;;;;;;;12.73;10.40;;;;;;;5.90;49.65;101722.44;6130324;29;20239;-56
2021/03/09 15:45:53;;;;;;;9.23;8.20;;;;;;;5.68;50.14;101718.44;6117319;28;20243;-57
2021/03/09 15:49:14;;;;;;;9.53;8.27;;;;;;;5.77;50.65;101720.41;6131824;28;20345;-57
2021/03/09 15:52:35;;;;;;;9.83;8.73;;;;;;;6.23;49.13;101717.22;6129549;28;21017;-56